Time;durP1;ratioP1;P1;durP2;ratioP2;P2;SDS_P1;SDS_P2;PMS_P1;PMS_P2;Temp;Humidity;BMP_temperature;BMP_pressure;BME280_temperature;BME280_humidity;BME280_pressure;Samples;Min_cycle;Max_cycle;Signal;HPM_P1;HPM_P2
2022/06/25 00:01:20;;;;;;;2.70;2.40;;;14.90;99.90;;;;;;5096255;28;20450;-94
2022/06/25 00:03:47;;;;;;;5.07;2.67;;;14.90;99.90;;;;;;5096948;28;20478;-94
2022/06/25 00:06:15;;;;;;;2.57;2.03;;;14.80;99.90;;;;;;5096247;28;20463;-94
2022/06/25 00:08:44;;;;;;;2.60;2.40;;;14.80;99.90;;;;;;5097202;28;20451;-93
2022/06/25 00:12:31;;;;;;;4.10;2.23;;;14.80;99.90;;;;;;5095099;28;20457;-93
2022/06/25 00:13:58;;;;;;;2.73;2.53;;;14.80;99.90;;;;;;5095631;28;20472;-94
2022/06/25 00:16:26;;;;;;;4.50;2.90;;;14.80;99.90;;;;;;5095900;28;20485;-93
2022/06/25 00:18:53;;;;;;;2.80;2.60;;;14.80;99.90;;;;;;5095109;28;20201;-94
2022/06/25 00:21:19;;;;;;;3.77;2.73;;;14.70;99.90;;;;;;5095569;28;20448;-94
2022/06/25 00:23:46;;;;;;;2.70;2.50;;;14.70;99.90;;;;;;5094697;28;20467;-93
2022/06/25 00:26:13;;;;;;;3.90;2.80;;;14.70;99.90;;;;;;5094559;28;20486;-93
2022/06/25 00:28:39;;;;;;;2.93;2.73;;;14.70;99.90;;;;;;5096600;28;20465;-93
2022/06/25 00:31:06;;;;;;;2.60;2.40;;;14.60;99.90;;;;;;5094369;28;20462;-94
2022/06/25 00:33:34;;;;;;;2.40;2.20;;;14.60;99.90;;;;;;5093349;28;20477;-93
2022/06/25 00:36:01;;;;;;;4.23;2.07;;;14.60;99.90;;;;;;5095108;28;20487;-93
2022/06/25 00:38:28;;;;;;;2.53;2.20;;;14.50;99.90;;;;;;5095589;28;20450;-93
2022/06/25 00:40:54;;;;;;;2.70;2.50;;;14.60;99.90;;;;;;5094348;28;20525;-95
2022/06/25 00:43:21;;;;;;;2.83;2.53;;;14.60;99.90;;;;;;5094027;28;20482;-93
2022/06/25 00:45:48;;;;;;;2.90;2.70;;;14.60;99.90;;;;;;5094755;28;20483;-94
2022/06/25 00:48:15;;;;;;;3.10;1.90;;;14.50;99.90;;;;;;5094478;28;20435;-93
2022/06/25 00:50:43;;;;;;;2.93;2.30;;;14.50;99.90;;;;;;5095365;28;20443;-94
2022/06/25 00:53:12;;;;;;;3.27;2.37;;;14.50;99.90;;;;;;5096994;28;20455;-95
2022/06/25 00:55:39;;;;;;;3.00;2.03;;;14.50;99.90;;;;;;5094719;28;20482;-95
2022/06/25 00:58:10;;;;;;;2.40;2.20;;;14.50;99.90;;;;;;5093514;28;20465;-95
2022/06/25 01:00:39;;;;;;;2.43;2.23;;;14.50;99.90;;;;;;5093793;28;20458;-93
2022/06/25 01:03:06;;;;;;;3.37;2.23;;;14.50;99.90;;;;;;5096561;28;20466;-94
2022/06/25 01:05:33;;;;;;;2.63;2.17;;;14.50;99.90;;;;;;5094690;28;20489;-94
2022/06/25 01:08:01;;;;;;;2.93;2.40;;;14.50;99.90;;;;;;5094033;28;20459;-94
2022/06/25 01:10:28;;;;;;;2.83;2.20;;;14.50;99.90;;;;;;5094906;28;20443;-95
2022/06/25 01:12:55;;;;;;;2.20;2.03;;;14.40;99.90;;;;;;5093267;28;20457;-93
2022/06/25 01:15:22;;;;;;;2.60;2.40;;;14.40;99.90;;;;;;5094136;28;20479;-94
2022/06/25 01:17:51;;;;;;;3.80;2.60;;;14.40;99.90;;;;;;5094894;28;20467;-93
2022/06/25 01:20:20;;;;;;;2.33;2.13;;;14.40;99.90;;;;;;5092961;28;20457;-94
2022/06/25 01:22:48;;;;;;;5.60;2.43;;;14.40;99.90;;;;;;5092776;28;20465;-95
2022/06/25 01:25:16;;;;;;;2.73;2.53;;;14.50;99.90;;;;;;5093780;28;20465;-93
2022/06/25 01:27:43;;;;;;;2.40;2.20;;;14.50;99.90;;;;;;5094436;28;20954;-95
2022/06/25 01:30:11;;;;;;;7.60;2.67;;;14.40;99.90;;;;;;5093770;28;20954;-94
2022/06/25 01:32:38;;;;;;;2.70;2.13;;;14.40;99.90;;;;;;5093985;28;20435;-94
2022/06/25 01:35:07;;;;;;;6.57;2.73;;;14.40;99.90;;;;;;5097001;28;20461;-94
2022/06/25 01:37:34;;;;;;;4.43;2.07;;;14.40;99.90;;;;;;5094272;28;20457;-93
2022/06/25 01:40:03;;;;;;;2.27;2.07;;;14.40;99.90;;;;;;5095491;28;20466;-94
2022/06/25 01:45:14;;;;;;;2.73;2.20;;;14.40;99.90;;;;;;5096816;28;20481;-93
2022/06/25 01:47:41;;;;;;;2.50;2.10;;;14.30;99.90;;;;;;5095764;28;20447;-94
2022/06/25 01:50:09;;;;;;;3.37;2.20;;;14.30;99.90;;;;;;5096417;28;20451;-94
2022/06/25 01:52:36;;;;;;;4.23;2.90;;;14.30;99.90;;;;;;5095426;28;20456;-94
2022/06/25 01:55:05;;;;;;;2.37;2.17;;;14.30;99.90;;;;;;5096365;28;20466;-94
2022/06/25 01:57:32;;;;;;;6.20;2.50;;;14.30;99.90;;;;;;5095683;28;20453;-95
2022/06/25 01:59:59;;;;;;;5.20;2.37;;;14.30;99.90;;;;;;5095878;28;20458;-94
2022/06/25 02:02:26;;;;;;;2.80;2.60;;;14.30;99.90;;;;;;5096103;28;20443;-93
2022/06/25 02:04:53;;;;;;;2.70;2.17;;;14.30;99.90;;;;;;5095592;28;20466;-95
2022/06/25 02:07:19;;;;;;;2.77;2.40;;;14.30;99.90;;;;;;5095015;28;20457;-95
2022/06/25 02:09:46;;;;;;;2.90;2.40;;;14.30;99.90;;;;;;5095331;28;20438;-94
2022/06/25 02:12:14;;;;;;;6.17;2.63;;;14.30;99.90;;;;;;5095563;28;20459;-94
2022/06/25 02:14:41;;;;;;;5.27;2.80;;;14.30;99.90;;;;;;5093723;28;20500;-94
2022/06/25 02:17:08;;;;;;;6.17;2.37;;;14.30;99.90;;;;;;5095423;28;20461;-93
2022/06/25 02:19:34;;;;;;;2.80;2.47;;;14.30;99.90;;;;;;5094474;28;20461;-94
2022/06/25 02:22:01;;;;;;;3.20;2.53;;;14.30;99.90;;;;;;5094753;28;20434;-95
2022/06/25 02:24:28;;;;;;;2.80;2.60;;;14.30;99.90;;;;;;5095727;28;20482;-94
2022/06/25 02:26:55;;;;;;;3.40;2.50;;;14.20;99.90;;;;;;5167299;22;20511;-71
2022/06/25 02:29:23;;;;;;;3.73;2.53;;;14.20;99.90;;;;;;5114407;28;20463;-71
2022/06/25 02:31:49;;;;;;;2.23;2.03;;;14.20;99.90;;;;;;5114901;28;20456;-72
2022/06/25 02:34:16;;;;;;;3.80;2.77;;;14.20;99.90;;;;;;5114945;28;20476;-71
2022/06/25 02:36:43;;;;;;;2.30;2.10;;;14.20;99.90;;;;;;5114560;28;20991;-71
2022/06/25 02:39:10;;;;;;;2.77;2.33;;;14.20;99.90;;;;;;5114202;28;20455;-71
2022/06/25 02:41:36;;;;;;;3.30;2.37;;;14.10;99.90;;;;;;5114473;28;20459;-71
2022/06/25 02:44:03;;;;;;;3.50;2.40;;;14.10;99.90;;;;;;5114385;28;20491;-70
2022/06/25 02:46:32;;;;;;;3.33;2.53;;;14.10;99.90;;;;;;5114668;28;20456;-71
2022/06/25 02:48:58;;;;;;;6.10;2.97;;;14.10;99.90;;;;;;5114354;28;20456;-71
2022/06/25 02:51:25;;;;;;;2.80;2.60;;;14.10;99.90;;;;;;5114068;28;20461;-72
2022/06/25 02:53:52;;;;;;;3.00;2.77;;;14.10;99.90;;;;;;5114448;28;20463;-71
2022/06/25 02:59:04;;;;;;;3.40;2.50;;;14.10;99.90;;;;;;5114290;28;20439;-72
2022/06/25 03:01:32;;;;;;;4.17;2.47;;;14.10;99.90;;;;;;5113999;28;20544;-72
2022/06/25 03:03:59;;;;;;;3.47;2.37;;;14.10;99.90;;;;;;5114083;28;20491;-71
2022/06/25 03:06:26;;;;;;;2.73;2.53;;;13.90;99.90;;;;;;5114042;28;20534;-71
2022/06/25 03:08:53;;;;;;;4.67;2.47;;;13.90;99.90;;;;;;5114030;28;20677;-70
2022/06/25 03:11:20;;;;;;;3.90;2.73;;;13.90;99.90;;;;;;5113777;28;20896;-71
2022/06/25 03:13:47;;;;;;;2.87;2.50;;;13.90;99.90;;;;;;5114121;28;20510;-70
2022/06/25 03:16:14;;;;;;;2.90;2.50;;;13.90;99.90;;;;;;5113739;28;20467;-71
2022/06/25 03:18:42;;;;;;;4.60;2.60;;;13.90;99.90;;;;;;5113808;28;20472;-71
2022/06/25 03:21:09;;;;;;;2.93;2.67;;;13.90;99.90;;;;;;5113147;28;20955;-72
2022/06/25 03:23:36;;;;;;;2.93;2.73;;;13.90;99.90;;;;;;5113597;28;21040;-70
2022/06/25 03:26:03;;;;;;;2.93;2.50;;;13.90;99.90;;;;;;5113692;28;20468;-71
2022/06/25 03:28:29;;;;;;;2.63;2.43;;;13.90;99.90;;;;;;5113499;28;20476;-71
2022/06/25 03:30:56;;;;;;;4.30;2.60;;;13.80;99.90;;;;;;5113237;28;20456;-71
2022/06/25 03:33:23;;;;;;;2.87;2.67;;;13.80;99.90;;;;;;5113502;28;20465;-71
2022/06/25 03:35:51;;;;;;;2.83;2.50;;;13.80;99.90;;;;;;5112849;28;20461;-71
2022/06/25 03:38:18;;;;;;;3.90;2.43;;;13.80;99.90;;;;;;5113386;28;20483;-72
2022/06/25 03:40:44;;;;;;;2.40;2.20;;;13.80;99.90;;;;;;5112772;28;20459;-71
2022/06/25 03:43:11;;;;;;;2.93;2.50;;;13.80;99.90;;;;;;5113489;28;20464;-71
2022/06/25 03:45:39;;;;;;;5.93;2.80;;;13.80;99.90;;;;;;5113249;28;20490;-70
2022/06/25 03:48:06;;;;;;;2.70;2.50;;;13.80;99.90;;;;;;5113240;28;20481;-71
2022/06/25 03:50:34;;;;;;;3.83;2.50;;;13.80;99.90;;;;;;5112611;28;20817;-72
2022/06/25 03:53:03;;;;;;;2.60;2.40;;;13.80;99.90;;;;;;5113417;28;20453;-71
2022/06/25 03:55:29;;;;;;;4.10;2.73;;;13.80;99.90;;;;;;5113341;28;20461;-71
2022/06/25 03:57:57;;;;;;;2.50;2.27;;;13.80;99.90;;;;;;5114901;28;20481;-71
2022/06/25 04:00:24;;;;;;;2.80;2.60;;;13.80;99.90;;;;;;5113437;28;20460;-71
2022/06/25 04:02:50;;;;;;;3.00;2.77;;;13.90;99.90;;;;;;5113214;28;20967;-69
2022/06/25 04:05:17;;;;;;;3.20;2.90;;;13.90;99.90;;;;;;5113154;28;20499;-72
2022/06/25 04:07:44;;;;;;;4.40;3.20;;;13.90;99.90;;;;;;5112968;28;20546;-72
2022/06/25 04:10:12;;;;;;;2.50;2.23;;;13.90;99.90;;;;;;5112518;28;20465;-71
2022/06/25 04:12:39;;;;;;;2.70;2.50;;;13.90;99.90;;;;;;5112748;28;20488;-71
2022/06/25 04:15:06;;;;;;;4.77;2.73;;;13.90;99.90;;;;;;5112806;28;20449;-70
2022/06/25 04:17:33;;;;;;;2.87;2.60;;;13.90;99.90;;;;;;5112507;28;20575;-72
2022/06/25 04:20:00;;;;;;;2.70;2.50;;;13.90;99.90;;;;;;5112254;28;20460;-71
2022/06/25 04:22:27;;;;;;;3.87;2.90;;;14.00;99.90;;;;;;5112508;28;20462;-72
2022/06/25 04:24:53;;;;;;;3.40;3.10;;;13.90;99.90;;;;;;5112708;28;20580;-72
2022/06/25 04:30:07;;;;;;;3.33;3.03;;;14.00;99.90;;;;;;5112244;28;20537;-71
2022/06/25 04:32:34;;;;;;;3.80;2.73;;;14.00;99.90;;;;;;5112378;28;20453;-71
2022/06/25 04:35:01;;;;;;;3.40;2.73;;;14.10;99.90;;;;;;5112420;28;20974;-71
2022/06/25 04:37:28;;;;;;;2.70;2.20;;;14.10;99.90;;;;;;5112117;28;20481;-72
2022/06/25 04:39:54;;;;;;;2.63;2.33;;;14.10;99.90;;;;;;5111933;28;20471;-72
2022/06/25 04:42:22;;;;;;;3.60;2.20;;;14.10;99.90;;;;;;5112229;28;20464;-71
2022/06/25 04:44:49;;;;;;;3.10;2.40;;;14.20;99.90;;;;;;5112397;28;20511;-71
2022/06/25 04:47:16;;;;;;;5.70;2.50;;;14.20;99.90;;;;;;5111047;28;20488;-72
2022/06/25 04:49:42;;;;;;;2.77;1.63;;;14.30;99.90;;;;;;5111719;28;20460;-72
2022/06/25 04:52:09;;;;;;;2.67;2.47;;;14.30;99.90;;;;;;5112149;28;20967;-72
2022/06/25 04:54:36;;;;;;;4.17;2.37;;;14.40;99.90;;;;;;5111927;28;20453;-70
2022/06/25 04:57:04;;;;;;;2.40;2.20;;;14.40;99.90;;;;;;5112035;28;20516;-71
2022/06/25 04:59:32;;;;;;;3.70;2.47;;;14.50;99.90;;;;;;5111886;28;20464;-70
2022/06/25 05:01:59;;;;;;;2.67;2.20;;;14.50;99.90;;;;;;5112069;28;20460;-70
2022/06/25 05:04:25;;;;;;;2.20;2.10;;;14.60;99.90;;;;;;5111574;28;20481;-71
2022/06/25 05:06:52;;;;;;;2.53;2.13;;;14.70;99.90;;;;;;5111967;28;20476;-72
2022/06/25 05:09:19;;;;;;;2.03;1.93;;;14.70;99.90;;;;;;5111240;28;20456;-70
2022/06/25 05:11:46;;;;;;;3.10;1.87;;;14.90;99.90;;;;;;5111905;28;20830;-72
2022/06/25 05:14:13;;;;;;;2.43;2.03;;;14.90;99.90;;;;;;5112070;28;20812;-71
2022/06/25 05:16:41;;;;;;;5.53;2.07;;;15.00;99.90;;;;;;5111394;28;20485;-72
2022/06/25 05:19:07;;;;;;;3.90;2.07;;;15.00;99.90;;;;;;5111351;28;20543;-71
2022/06/25 05:21:35;;;;;;;2.20;2.00;;;15.10;99.90;;;;;;5111313;28;20464;-71
2022/06/25 05:24:02;;;;;;;6.57;2.23;;;15.10;99.90;;;;;;5111477;28;20464;-71
2022/06/25 05:26:28;;;;;;;3.10;1.90;;;15.20;99.90;;;;;;5111182;28;20849;-71
2022/06/25 05:28:55;;;;;;;2.90;2.07;;;15.20;99.90;;;;;;5111425;28;20456;-72
2022/06/25 05:31:22;;;;;;;2.50;2.30;;;15.40;99.90;;;;;;5111203;28;20459;-71
2022/06/25 05:33:50;;;;;;;2.03;1.93;;;15.40;99.90;;;;;;5111356;28;20977;-71
2022/06/25 05:36:17;;;;;;;2.13;1.93;;;15.40;99.90;;;;;;5111396;28;20456;-71
2022/06/25 05:38:44;;;;;;;1.73;1.63;;;15.50;99.90;;;;;;5111155;28;20991;-72
2022/06/25 05:41:11;;;;;;;2.93;2.00;;;15.60;99.90;;;;;;5110962;28;20464;-71
2022/06/25 05:43:38;;;;;;;1.50;1.40;;;15.60;99.90;;;;;;5111107;28;20453;-70
2022/06/25 05:46:05;;;;;;;3.50;1.60;;;15.70;99.90;;;;;;5111328;28;20485;-71
2022/06/25 05:48:33;;;;;;;2.10;1.77;;;15.80;99.90;;;;;;5111026;28;20477;-72
2022/06/25 05:51:01;;;;;;;2.17;1.83;;;15.80;99.90;;;;;;5110929;28;20461;-72
2022/06/25 05:53:28;;;;;;;2.03;1.83;;;15.90;99.90;;;;;;5111227;28;20978;-71
2022/06/25 05:55:55;;;;;;;2.17;1.93;;;15.90;99.90;;;;;;5111259;28;20453;-72
2022/06/25 05:58:22;;;;;;;3.27;1.93;;;16.00;99.90;;;;;;5112187;28;20476;-71
2022/06/25 06:00:49;;;;;;;2.77;2.00;;;16.00;99.90;;;;;;5114865;28;20551;-72
2022/06/25 06:03:15;;;;;;;2.70;2.50;;;16.10;99.90;;;;;;5115412;28;20455;-71
2022/06/25 06:05:42;;;;;;;1.93;1.80;;;16.10;99.90;;;;;;5115265;28;20491;-72
2022/06/25 06:08:10;;;;;;;2.10;1.90;;;16.20;99.90;;;;;;5115230;28;20487;-70
2022/06/25 06:10:37;;;;;;;2.80;2.50;;;16.30;99.90;;;;;;5114627;28;20456;-71
2022/06/25 06:13:04;;;;;;;2.10;1.90;;;16.30;99.90;;;;;;5115215;28;20473;-72
2022/06/25 06:15:31;;;;;;;1.80;1.70;;;16.40;99.90;;;;;;5115224;28;20460;-72
2022/06/25 06:17:57;;;;;;;1.90;1.77;;;16.40;99.90;;;;;;5115246;28;20975;-72
2022/06/25 06:20:24;;;;;;;2.10;1.93;;;16.50;99.90;;;;;;5114647;28;20457;-72
2022/06/25 06:22:51;;;;;;;1.70;1.60;;;16.50;99.90;;;;;;5115167;28;20548;-73
2022/06/25 06:25:19;;;;;;;2.10;1.80;;;16.60;99.90;;;;;;5114300;28;20488;-73
2022/06/25 06:27:46;;;;;;;3.50;1.80;;;16.70;99.90;;;;;;5114961;28;20986;-73
2022/06/25 06:30:12;;;;;;;2.03;1.83;;;16.70;99.90;;;;;;5114331;28;20456;-73
2022/06/25 06:32:39;;;;;;;1.87;1.77;;;16.80;99.90;;;;;;5114783;28;20463;-73
2022/06/25 06:35:07;;;;;;;1.70;1.60;;;16.90;99.90;;;;;;5114751;28;20459;-73
2022/06/25 06:37:34;;;;;;;2.20;1.97;;;16.90;99.90;;;;;;5114772;28;20485;-73
2022/06/25 06:40:00;;;;;;;2.27;1.70;;;17.00;99.90;;;;;;5114260;28;20865;-73
2022/06/25 06:42:29;;;;;;;2.10;1.90;;;17.10;99.90;;;;;;5114724;28;20456;-72
2022/06/25 06:44:56;;;;;;;2.20;2.00;;;17.10;99.90;;;;;;5114775;28;20484;-73
2022/06/25 06:47:22;;;;;;;1.83;1.73;;;17.30;99.90;;;;;;5114334;28;20533;-73
2022/06/25 06:49:49;;;;;;;2.40;1.70;;;17.40;99.90;;;;;;5114163;28;20467;-73
2022/06/25 06:52:16;;;;;;;2.00;1.80;;;17.50;99.90;;;;;;5114423;28;20463;-72
2022/06/25 06:54:42;;;;;;;2.50;1.73;;;17.60;99.90;;;;;;5114528;28;20459;-73
2022/06/25 06:57:09;;;;;;;3.23;1.90;;;17.70;99.90;;;;;;5114179;28;20476;-73
2022/06/25 06:59:38;;;;;;;4.70;2.00;;;17.80;99.90;;;;;;5113943;28;20460;-73
2022/06/25 07:02:05;;;;;;;1.60;1.50;;;17.80;99.90;;;;;;5114823;28;20479;-71
2022/06/25 07:04:31;;;;;;;2.37;2.17;;;17.90;99.90;;;;;;5114399;28;20837;-73
2022/06/25 07:06:58;;;;;;;1.80;1.70;;;17.90;99.90;;;;;;5114213;28;20476;-72
2022/06/25 07:09:25;;;;;;;2.27;1.87;;;18.00;99.90;;;;;;5112972;28;20507;-72
2022/06/25 07:11:52;;;;;;;1.80;1.63;;;18.20;99.90;;;;;;5113741;28;20457;-73
2022/06/25 07:14:19;;;;;;;1.90;1.70;;;18.20;99.90;;;;;;5114120;28;20841;-73
2022/06/25 07:16:48;;;;;;;2.17;1.97;;;18.30;99.90;;;;;;5113995;28;20808;-73
2022/06/25 07:19:15;;;;;;;3.13;2.23;;;18.40;99.90;;;;;;5113517;28;20465;-71
2022/06/25 07:21:42;;;;;;;3.20;2.07;;;18.50;99.90;;;;;;5113875;28;20460;-71
2022/06/25 07:24:09;;;;;;;2.57;1.80;;;18.60;99.90;;;;;;5113948;28;20819;-73
2022/06/25 07:26:36;;;;;;;4.90;4.40;;;18.60;99.90;;;;;;5113506;28;20487;-73
2022/06/25 07:29:03;;;;;;;2.47;1.87;;;18.70;99.90;;;;;;5113738;28;20492;-73
2022/06/25 07:31:30;;;;;;;2.70;1.50;;;18.80;99.90;;;;;;5113403;28;20460;-73
2022/06/25 07:33:58;;;;;;;1.90;1.80;;;18.80;99.90;;;;;;5114121;28;20812;-73
2022/06/25 07:36:24;;;;;;;2.47;2.27;;;18.80;99.90;;;;;;5113638;28;20464;-73
2022/06/25 07:38:52;;;;;;;2.13;1.93;;;18.70;99.90;;;;;;5113664;28;20484;-72
2022/06/25 07:41:18;;;;;;;2.30;2.00;;;18.80;99.90;;;;;;5113303;28;20467;-72
2022/06/25 07:43:45;;;;;;;2.00;1.80;;;18.90;99.90;;;;;;5113731;28;20465;-73
2022/06/25 07:46:12;;;;;;;2.13;1.93;;;18.90;99.90;;;;;;5113290;28;20487;-72
2022/06/25 07:48:39;;;;;;;2.40;2.07;;;19.00;99.90;;;;;;5113444;28;20832;-73
2022/06/25 07:53:52;;;;;;;2.87;1.80;;;19.20;99.90;;;;;;5113879;28;20437;-72
2022/06/25 07:56:18;;;;;;;2.37;1.73;;;19.20;99.90;;;;;;5113188;28;20479;-72
2022/06/25 07:58:45;;;;;;;3.33;2.20;;;19.20;99.90;;;;;;5113226;28;20456;-72
2022/06/25 08:01:12;;;;;;;2.20;2.00;;;19.20;99.90;;;;;;5112563;28;20467;-73
2022/06/25 08:03:39;;;;;;;2.17;1.70;;;19.30;99.90;;;;;;5113096;28;20991;-72
2022/06/25 08:06:07;;;;;;;2.23;1.90;;;19.40;99.90;;;;;;5112965;28;20485;-72
2022/06/25 08:08:34;;;;;;;1.87;1.77;;;19.40;99.90;;;;;;5113146;28;20995;-72
2022/06/25 08:11:00;;;;;;;3.30;2.10;;;19.30;99.90;;;;;;5112771;28;20460;-72
2022/06/25 08:13:27;;;;;;;2.47;2.00;;;19.20;99.90;;;;;;5113132;28;20483;-72
2022/06/25 08:15:54;;;;;;;2.60;2.40;;;19.10;99.90;;;;;;5113038;28;20457;-72
2022/06/25 08:18:22;;;;;;;3.03;2.00;;;19.00;99.90;;;;;;5112853;28;20477;-72
2022/06/25 08:20:49;;;;;;;2.53;1.90;;;19.00;99.90;;;;;;5112484;28;20552;-72
2022/06/25 08:23:17;;;;;;;2.10;1.90;;;19.10;99.90;;;;;;5112927;28;20453;-72
2022/06/25 08:28:11;;;;;;;4.60;2.30;;;19.40;99.90;;;;;;5074331;28;20489;-79
2022/06/25 08:30:42;;;;;;;2.97;2.00;;;19.70;99.90;;;;;;5075646;28;20807;-79
2022/06/25 08:33:09;;;;;;;2.23;1.97;;;19.90;99.90;;;;;;5076699;28;20450;-79
2022/06/25 08:35:36;;;;;;;2.33;1.90;;;20.00;99.90;;;;;;5077178;28;20454;-80
2022/06/25 08:38:04;;;;;;;2.40;2.20;;;20.10;99.90;;;;;;5076091;28;20494;-79
2022/06/25 08:40:32;;;;;;;1.90;1.80;;;20.20;99.90;;;;;;5078718;28;20464;-80
2022/06/25 08:43:00;;;;;;;2.30;1.97;;;20.30;99.90;;;;;;5078700;28;20965;-79
2022/06/25 08:45:27;;;;;;;2.23;2.03;;;20.50;99.90;;;;;;5078003;28;20486;-80
2022/06/25 08:47:58;;;;;;;2.37;1.93;;;20.70;99.90;;;;;;5078549;28;20488;-80
2022/06/25 08:50:25;;;;;;;3.63;2.13;;;20.90;99.90;;;;;;5078097;28;20462;-79
2022/06/25 08:52:56;;;;;;;2.87;2.17;;;21.10;99.90;;;;;;5078455;28;20458;-79
2022/06/25 08:55:33;;;;;;;2.93;2.27;;;21.30;99.90;;;;;;5080460;28;20934;-80
2022/06/25 08:58:00;;;;;;;3.37;2.53;;;21.10;99.90;;;;;;5077604;28;20542;-80
2022/06/25 09:00:28;;;;;;;2.20;2.00;;;20.90;99.90;;;;;;5076304;28;20466;-79
2022/06/25 09:02:55;;;;;;;2.20;2.00;;;20.90;99.90;;;;;;5077427;28;20458;-80
2022/06/25 09:05:28;;;;;;;2.63;2.03;;;21.00;99.90;;;;;;5078214;28;21009;-80
2022/06/25 09:07:56;;;;;;;2.30;1.90;;;21.30;99.90;;;;;;5077711;28;20482;-81
2022/06/25 09:10:25;;;;;;;3.60;2.10;;;21.50;99.90;;;;;;5079455;28;20455;-80
2022/06/25 09:12:54;;;;;;;2.80;1.97;;;21.70;99.90;;;;;;5080617;28;20455;-80
2022/06/25 09:15:23;;;;;;;2.20;2.00;;;21.70;99.90;;;;;;5082010;28;20466;-80
2022/06/25 09:17:51;;;;;;;3.10;2.10;;;21.60;99.90;;;;;;5086573;28;21048;-79
2022/06/25 09:20:18;;;;;;;2.17;2.03;;;21.40;99.90;;;;;;5084889;28;20458;-81
2022/06/25 09:22:59;;;;;;;3.37;2.67;;;21.30;99.90;;;;;;5086406;28;20446;-80
2022/06/25 09:25:28;;;;;;;2.30;2.10;;;21.50;99.90;;;;;;5087425;28;21013;-80
2022/06/25 09:27:57;;;;;;;1.80;1.70;;;21.60;99.90;;;;;;5082462;28;20497;-81
2022/06/25 09:30:27;;;;;;;2.20;2.00;;;21.70;99.90;;;;;;5080062;28;20462;-80
2022/06/25 09:32:56;;;;;;;2.50;2.03;;;21.90;99.90;;;;;;5079274;28;20451;-79
2022/06/25 09:35:34;;;;;;;2.33;1.90;;;21.80;99.90;;;;;;5080032;28;20800;-79
2022/06/25 09:38:06;;;;;;;2.37;2.00;;;21.90;99.90;;;;;;5080429;28;20878;-81
2022/06/25 09:40:34;;;;;;;3.40;2.23;;;21.90;99.90;;;;;;5080534;28;20465;-80
2022/06/25 09:43:12;;;;;;;2.93;2.20;;;21.90;99.90;;;;;;5082266;28;20451;-80
2022/06/25 09:45:39;;;;;;;3.10;1.97;;;21.70;99.90;;;;;;5081402;28;20490;-80
2022/06/25 09:48:10;;;;;;;2.60;1.93;;;21.80;99.90;;;;;;5081635;28;20497;-80
2022/06/25 09:50:37;;;;;;;2.13;1.93;;;22.10;99.90;;;;;;5078701;28;20462;-80
2022/06/25 09:53:04;;;;;;;2.20;2.00;;;22.30;99.90;;;;;;5080866;28;20508;-79
2022/06/25 09:55:33;;;;;;;2.20;1.87;;;22.50;99.90;;;;;;5081114;28;20458;-80
2022/06/25 09:58:03;;;;;;;3.10;2.23;;;22.70;99.90;;;;;;5080230;28;20486;-80
2022/06/25 10:00:31;;;;;;;2.73;2.03;;;23.00;99.90;;;;;;5082716;28;20455;-80
2022/06/25 10:03:00;;;;;;;2.70;2.07;;;23.40;99.90;;;;;;5079572;28;20474;-80
2022/06/25 10:05:33;;;;;;;2.20;1.97;;;23.70;99.90;;;;;;5079929;28;20515;-80
2022/06/25 10:08:04;;;;;;;2.00;1.80;;;23.80;99.90;;;;;;5077254;28;20494;-80
2022/06/25 10:10:34;;;;;;;2.27;2.07;;;23.60;99.90;;;;;;5075983;28;20459;-80
2022/06/25 10:13:03;;;;;;;3.80;3.60;;;23.50;99.90;;;;;;5076333;28;20459;-80
2022/06/25 10:15:31;;;;;;;2.83;2.57;;;23.30;99.90;;;;;;5077969;28;20484;-82
2022/06/25 10:18:01;;;;;;;2.40;1.83;;;23.40;99.90;;;;;;5076134;28;20856;-79
2022/06/25 10:20:28;;;;;;;2.10;1.90;;;23.60;99.90;;;;;;5074964;28;20462;-80
2022/06/25 10:22:56;;;;;;;2.07;1.77;;;23.50;99.90;;;;;;5074791;28;20554;-80
2022/06/25 10:25:25;;;;;;;3.17;2.30;;;23.50;99.90;;;;;;5075009;28;20454;-80
2022/06/25 10:28:07;;;;;;;2.30;2.03;;;23.70;99.90;;;;;;5076427;28;20474;-81
2022/06/25 10:30:45;;;;;;;3.10;2.33;;;23.90;99.90;;;;;;5075427;28;20949;-80
2022/06/25 10:33:12;;;;;;;6.03;2.40;;;23.80;99.90;;;;;;5076829;28;20457;-80
2022/06/25 10:35:42;;;;;;;4.13;1.83;;;23.70;99.90;;;;;;5076639;28;20458;-79
2022/06/25 10:38:10;;;;;;;2.40;2.20;;;23.90;99.90;;;;;;5074540;28;20478;-79
2022/06/25 10:40:49;;;;;;;2.20;1.83;;;24.00;99.90;;;;;;5073518;28;20828;-79
2022/06/25 10:43:50;;;;;;;2.40;2.20;;;24.10;99.90;;;;;;5073854;28;20794;-80
2022/06/25 10:46:31;;;;;;;2.60;2.03;;;24.00;99.90;;;;;;5076097;28;20505;-80
2022/06/25 10:49:06;;;;;;;2.43;2.23;;;24.10;99.90;;;;;;5077112;28;20462;-80
2022/06/25 10:51:40;;;;;;;1.93;1.80;;;24.40;99.90;;;;;;5079466;28;20887;-79
2022/06/25 10:54:11;;;;;;;2.23;2.03;;;24.70;99.90;;;;;;5079740;28;20797;-80
2022/06/25 10:56:45;;;;;;;2.03;1.90;;;24.60;99.90;;;;;;5079459;28;20955;-81
2022/06/25 10:59:31;;;;;;;4.97;2.23;;;24.50;99.90;;;;;;5076784;28;20458;-80
2022/06/25 11:02:01;;;;;;;2.43;1.80;;;24.50;99.90;;;;;;5078046;28;20454;-80
2022/06/25 11:04:29;;;;;;;2.23;1.90;;;24.50;99.90;;;;;;5078473;28;20457;-81
2022/06/25 11:07:08;;;;;;;5.40;2.20;;;24.70;99.90;;;;;;5077552;28;20582;-80
2022/06/25 11:09:35;;;;;;;1.87;1.77;;;25.00;99.90;;;;;;5077478;28;20458;-80
2022/06/25 11:12:02;;;;;;;1.90;1.70;;;25.20;99.90;;;;;;5076065;28;20463;-80
2022/06/25 11:14:29;;;;;;;2.33;2.13;;;25.40;99.90;;;;;;5078537;28;20478;-80
2022/06/25 11:16:56;;;;;;;2.30;2.10;;;25.40;99.90;;;;;;5077459;28;20467;-79
2022/06/25 11:19:25;;;;;;;3.43;1.70;;;25.20;99.90;;;;;;5075998;28;20870;-80
2022/06/25 11:21:52;;;;;;;2.27;2.07;;;25.30;99.90;;;;;;5075807;28;20459;-80
2022/06/25 11:24:22;;;;;;;2.20;1.80;;;25.60;99.90;;;;;;5076324;28;20476;-81
2022/06/25 11:29:39;;;;;;;2.10;1.90;;;26.10;99.90;;;;;;5078261;28;20484;-81
2022/06/25 11:32:06;;;;;;;1.70;1.60;;;26.30;99.90;;;;;;5076243;28;20469;-81
2022/06/25 11:34:36;;;;;;;1.90;1.80;;;26.40;99.90;;;;;;5076048;28;20490;-81
2022/06/25 11:37:06;;;;;;;1.73;1.60;;;26.10;99.90;;;;;;5076588;28;20474;-80
2022/06/25 11:39:34;;;;;;;2.20;1.70;;;25.60;99.90;;;;;;5075918;28;20463;-80
2022/06/25 11:42:02;;;;;;;2.93;2.17;;;25.20;99.90;;;;;;5076469;28;20553;-80
2022/06/25 11:44:37;;;;;;;2.03;1.90;;;25.30;99.90;;;;;;5076577;28;20490;-81
2022/06/25 11:47:04;;;;;;;2.40;2.10;;;25.60;99.90;;;;;;5076931;28;20508;-81
2022/06/25 11:49:39;;;;;;;1.90;1.80;;;25.80;99.90;;;;;;5077038;28;20459;-80
2022/06/25 11:52:07;;;;;;;2.00;1.80;;;26.10;99.90;;;;;;5078516;28;20466;-80
2022/06/25 11:54:36;;;;;;;3.30;1.90;;;26.20;99.90;;;;;;5075544;28;20872;-81
2022/06/25 11:57:04;;;;;;;2.57;1.93;;;26.40;99.90;;;;;;5075819;28;20486;-80
2022/06/25 11:59:32;;;;;;;2.47;1.93;;;26.70;99.90;;;;;;5076046;28;20566;-81
2022/06/25 12:02:00;;;;;;;1.90;1.70;;;26.80;99.90;;;;;;5076562;28;20458;-80
2022/06/25 12:04:27;;;;;;;2.10;1.80;;;27.00;99.90;;;;;;5076991;28;20961;-80
2022/06/25 12:06:55;;;;;;;1.60;1.50;;;27.10;99.90;;;;;;5077554;28;20513;-81
2022/06/25 12:09:23;;;;;;;1.93;1.70;;;27.10;99.90;;;;;;5075955;28;20833;-81
2022/06/25 12:11:55;;;;;;;1.97;1.70;;;27.20;99.90;;;;;;5077210;28;20823;-81
2022/06/25 12:14:24;;;;;;;1.67;1.57;;;27.30;99.90;;;;;;5076085;28;20463;-82
2022/06/25 12:16:51;;;;;;;1.60;1.33;;;27.40;99.90;;;;;;5076119;28;20475;-80
2022/06/25 12:19:19;;;;;;;1.70;1.60;;;27.50;99.90;;;;;;5074443;28;20512;-82
2022/06/25 12:21:45;;;;;;;1.90;1.53;;;27.70;99.90;;;;;;5075235;28;20463;-81
2022/06/25 12:24:15;;;;;;;2.37;1.70;;;27.90;99.90;;;;;;5076374;28;20467;-81
2022/06/25 12:26:50;;;;;;;1.63;1.53;;;27.90;98.30;;;;;;5075554;28;20497;-81
2022/06/25 12:29:20;;;;;;;1.97;1.83;;;27.50;98.50;;;;;;5076998;28;20533;-80
2022/06/25 12:31:55;;;;;;;2.10;1.67;;;27.40;98.20;;;;;;5075804;28;20526;-81
2022/06/25 12:34:22;;;;;;;1.60;1.50;;;27.40;99.10;;;;;;5075675;28;20471;-82
2022/06/25 12:36:50;;;;;;;1.53;1.33;;;27.50;96.80;;;;;;5075776;28;20877;-81
2022/06/25 12:39:38;;;;;;;2.30;1.70;;;27.70;99.60;;;;;;5074963;28;20504;-82
2022/06/25 12:42:08;;;;;;;1.60;1.50;;;27.80;99.00;;;;;;5075725;28;20831;-82
2022/06/25 12:44:38;;;;;;;1.60;1.50;;;27.90;99.50;;;;;;5075964;28;20466;-81
2022/06/25 12:47:07;;;;;;;2.10;1.90;;;28.00;98.20;;;;;;5074604;28;20873;-81
2022/06/25 12:49:48;;;;;;;2.70;1.73;;;28.00;97.80;;;;;;5074130;28;20463;-81
2022/06/25 12:52:19;;;;;;;2.83;1.50;;;28.00;97.40;;;;;;5076015;28;20972;-81
2022/06/25 12:54:49;;;;;;;1.60;1.50;;;27.80;97.30;;;;;;5075177;28;20447;-82
2022/06/25 12:57:26;;;;;;;1.70;1.60;;;27.50;96.90;;;;;;5074901;28;20477;-82
2022/06/25 12:59:54;;;;;;;3.20;1.90;;;27.60;99.90;;;;;;5074599;28;20459;-81
2022/06/25 13:02:21;;;;;;;1.83;1.73;;;27.90;98.90;;;;;;5075501;28;20469;-82
2022/06/25 13:04:49;;;;;;;2.37;2.10;;;28.00;99.50;;;;;;5075796;28;20542;-81
2022/06/25 13:07:16;;;;;;;1.77;1.60;;;28.20;98.60;;;;;;5076209;28;20483;-82
2022/06/25 13:09:44;;;;;;;2.00;1.60;;;28.30;98.70;;;;;;5073765;28;20463;-81